Terminal Aerodrome Forecast
Issued by NWS

Home | Current Version | Previous Version | Text Only | Print | Product List | Glossary On
Versions: 1 2 3 4 5 6 7 8 9 10 11 12 13 14 15 16 17 18 19 20 21
000
FTUS44 KCRP 311100
TAFALI
TAF
KALI 311129Z 3112/0112 03004KT 5SM BR SCT012 BKN100
      TEMPO 3112/3115 03015G30KT 2SM TSRA BR BKN012CB OVC100
     FM311600 02012KT P6SM BKN050 OVC100
     FM312100 03013KT P6SM SCT070
     FM010100 02005KT P6SM SKC=

USA.gov is the U.S. government's official web portal to all federal, state and local government web resources and services.